»·PEaware :: N101UD KSBP-KVNY

N101UD :: KSBP-KVNY

FLIGHT INFORMATION

Flight Status: Arrived
Operator: Privately registered:
United States
More flights under this callsign
Pilot: Aidan A. (8368)
Aircraft: BOMBARDIER BD-100 CHALLENGER 300
(CL30)
More flights by this aircraft type
Origin: KSBP San Luis Co Regl
United States
Destination: KVNY Van Nuys
United States
More flights between these airports :: More routes between these airports
Route: +RZS V386 FIM
File this flight plan on PilotEdge
Remarks:
Altitude:
(Current/Filed)
12,000ft
Speed:
(Current/Filed)
300kts
Departed: 06-Feb-20 05:38 PM
Arrived: 06-Feb-20 06:19 PM
Distance/Time
Traveled:
123nm/0:40
Distance/Time
To Go:
Arrived

Flight Plot

Page will automatically refresh every two minutes.

Flight plan parsing failed; only flown route is shown


Map Options




Map Legend


Flown Route
Filed Route
Departure Airport
Arrival Airport
Navaid (VOR, NDB)
Fix

Horizontal Profiles

Position Reports

Time Latitude Longitude Heading Altitude Ground
Speed
06-Feb-20 17:13 35.238211 -120.639938 308 219ft 0kts
06-Feb-20 17:14 35.238211 -120.639938 308 219ft 0kts
06-Feb-20 17:15 35.238211 -120.639938 308 219ft 0kts
06-Feb-20 17:16 35.238211 -120.639938 308 219ft 0kts
06-Feb-20 17:17 35.238211 -120.639938 308 219ft 0kts
06-Feb-20 17:18 35.238211 -120.639938 308 219ft 0kts
06-Feb-20 17:19 35.238211 -120.639938 308 219ft 0kts
06-Feb-20 17:20 35.238211 -120.639938 308 219ft 0kts
06-Feb-20 17:21 35.238211 -120.639938 308 219ft 0kts
06-Feb-20 17:22 35.238211 -120.639938 308 219ft 0kts
06-Feb-20 17:23 35.238211 -120.639938 308 219ft 0kts
06-Feb-20 17:24 35.238211 -120.639938 308 219ft 0kts
06-Feb-20 17:25 35.238211 -120.639938 308 219ft 0kts
06-Feb-20 17:26 35.238211 -120.639938 308 219ft 0kts
06-Feb-20 17:27 35.238211 -120.639938 308 219ft 0kts
06-Feb-20 17:28 35.238211 -120.639938 308 219ft 0kts
06-Feb-20 17:29 35.238211 -120.639938 308 219ft 0kts
06-Feb-20 17:30 35.238277 -120.640088 289 219ft 2kts
06-Feb-20 17:31 35.238811 -120.641855 305 219ft 10kts
06-Feb-20 17:32 35.241126 -120.645727 307 219ft 18kts
06-Feb-20 17:33 35.242401 -120.647668 140 219ft 10kts
06-Feb-20 17:34 35.238617 -120.641350 126 219ft 20kts
06-Feb-20 17:35 35.236103 -120.636948 126 219ft 15kts
06-Feb-20 17:36 35.234470 -120.634090 125 219ft 12kts
06-Feb-20 17:37 35.235043 -120.636875 306 219ft 96kts
06-Feb-20 17:38 35.262225 -120.686106 304 3292ft 233kts
06-Feb-20 17:39 35.304693 -120.764060 304 6585ft 265kts
06-Feb-20 17:40 35.340052 -120.845980 269 7991ft 292kts
06-Feb-20 17:41 35.274118 -120.882525 150 8004ft 326kts
06-Feb-20 17:42 35.210198 -120.799791 129 10984ft 349kts
06-Feb-20 17:43 35.142115 -120.703442 126 10990ft 393kts
06-Feb-20 17:44 35.109852 -120.582693 102 10991ft 332kts
06-Feb-20 17:45 35.083422 -120.469942 112 10992ft 360kts
06-Feb-20 17:46 35.017802 -120.375076 133 11012ft 369kts
06-Feb-20 17:47 34.943706 -120.285992 134 11011ft 374kts
06-Feb-20 17:48 34.868292 -120.195934 135 11003ft 382kts
06-Feb-20 17:49 34.791264 -120.104235 135 10993ft 386kts
06-Feb-20 17:50 34.714023 -120.012546 135 10989ft 385kts
06-Feb-20 17:51 34.637045 -119.921413 135 10992ft 385kts
06-Feb-20 17:52 34.559069 -119.829345 135 10996ft 388kts
06-Feb-20 17:53 34.503111 -119.722666 100 11003ft 379kts
06-Feb-20 17:54 34.480496 -119.597049 99 10786ft 385kts
06-Feb-20 17:55 34.458897 -119.471424 99 10291ft 365kts
06-Feb-20 17:56 34.439127 -119.356112 98 9785ft 332kts
06-Feb-20 17:57 34.420833 -119.249764 99 9258ft 311kts
06-Feb-20 17:58 34.403156 -119.147431 100 8639ft 307kts
06-Feb-20 17:59 34.385634 -119.046604 100 8020ft 304kts
06-Feb-20 18:00 34.368121 -118.946438 100 8019ft 302kts
06-Feb-20 18:01 34.354550 -118.847074 95 8015ft 290kts
06-Feb-20 18:02 34.387955 -118.771152 51 7517ft 255kts
06-Feb-20 18:03 34.429278 -118.702461 51 6125ft 233kts
06-Feb-20 18:04 34.463483 -118.645467 51 6158ft 236kts
06-Feb-20 18:05 34.501006 -118.582425 52 6126ft 229kts
06-Feb-20 18:06 34.501839 -118.518683 148 6136ft 223kts
06-Feb-20 18:07 34.454831 -118.479997 171 6130ft 205kts
06-Feb-20 18:08 34.423205 -118.524765 281 6115ft 201kts
06-Feb-20 18:09 34.431445 -118.588286 317 6185ft 207kts
06-Feb-20 18:10 34.487316 -118.607195 9 6108ft 214kts
06-Feb-20 18:11 34.508478 -118.544963 114 6116ft 209kts
06-Feb-20 18:12 34.460278 -118.513199 171 6011ft 195kts
06-Feb-20 18:13 34.405073 -118.508311 172 5550ft 194kts
06-Feb-20 18:14 34.350293 -118.504088 172 4571ft 185kts
06-Feb-20 18:15 34.303352 -118.499218 173 3214ft 168kts
06-Feb-20 18:16 34.263138 -118.495297 176 1919ft 125kts
06-Feb-20 18:17 34.231297 -118.492384 175 1197ft 113kts
06-Feb-20 18:18 34.205116 -118.490167 193 809ft 31kts
06-Feb-20 18:19 34.203815 -118.490678 200 809ft 1kts

Navigation Log

Ident Type
Flight plan parsing failed, navigation log unavailable